sensor_id;sensor_type;location;lat;lon;timestamp;P1;durP1;ratioP1;P2;durP2;ratioP2
26014;SDS011;13793;55.388;37.844;2023-03-20T00:00:02;108.30;;;33.27;;
26014;SDS011;13793;55.388;37.844;2023-03-20T00:02:35;87.43;;;28.43;;
26014;SDS011;13793;55.388;37.844;2023-03-20T00:05:13;92.80;;;30.00;;
26014;SDS011;13793;55.388;37.844;2023-03-20T00:07:48;97.43;;;30.60;;
26014;SDS011;13793;55.388;37.844;2023-03-20T00:10:20;80.40;;;28.20;;
26014;SDS011;13793;55.388;37.844;2023-03-20T00:12:53;82.83;;;28.30;;
26014;SDS011;13793;55.388;37.844;2023-03-20T00:15:26;77.50;;;28.27;;
26014;SDS011;13793;55.388;37.844;2023-03-20T00:17:58;78.53;;;27.63;;
26014;SDS011;13793;55.388;37.844;2023-03-20T00:20:28;64.13;;;25.27;;
26014;SDS011;13793;55.388;37.844;2023-03-20T00:22:59;64.23;;;24.40;;
26014;SDS011;13793;55.388;37.844;2023-03-20T00:25:31;66.07;;;25.33;;
26014;SDS011;13793;55.388;37.844;2023-03-20T00:28:03;72.47;;;27.10;;
26014;SDS011;13793;55.388;37.844;2023-03-20T00:30:41;61.87;;;23.27;;
26014;SDS011;13793;55.388;37.844;2023-03-20T00:33:13;60.23;;;24.30;;
26014;SDS011;13793;55.388;37.844;2023-03-20T00:35:44;64.57;;;24.23;;
26014;SDS011;13793;55.388;37.844;2023-03-20T00:38:15;71.03;;;25.47;;
26014;SDS011;13793;55.388;37.844;2023-03-20T00:40:45;66.13;;;26.50;;
26014;SDS011;13793;55.388;37.844;2023-03-20T00:43:19;62.03;;;25.47;;
26014;SDS011;13793;55.388;37.844;2023-03-20T00:45:49;59.40;;;24.40;;
26014;SDS011;13793;55.388;37.844;2023-03-20T00:48:20;61.50;;;24.37;;
26014;SDS011;13793;55.388;37.844;2023-03-20T00:50:51;58.67;;;26.23;;
26014;SDS011;13793;55.388;37.844;2023-03-20T00:53:22;62.97;;;24.90;;
26014;SDS011;13793;55.388;37.844;2023-03-20T00:55:52;56.77;;;24.13;;
26014;SDS011;13793;55.388;37.844;2023-03-20T00:58:25;60.53;;;25.23;;
26014;SDS011;13793;55.388;37.844;2023-03-20T01:00:56;60.40;;;24.27;;
26014;SDS011;13793;55.388;37.844;2023-03-20T01:03:26;61.37;;;25.03;;
26014;SDS011;13793;55.388;37.844;2023-03-20T01:05:57;53.67;;;23.90;;
26014;SDS011;13793;55.388;37.844;2023-03-20T01:08:28;55.33;;;23.20;;
26014;SDS011;13793;55.388;37.844;2023-03-20T01:10:59;54.90;;;23.63;;
26014;SDS011;13793;55.388;37.844;2023-03-20T01:13:30;60.97;;;24.73;;
26014;SDS011;13793;55.388;37.844;2023-03-20T01:16:01;66.10;;;24.00;;
26014;SDS011;13793;55.388;37.844;2023-03-20T01:18:32;55.80;;;23.77;;
26014;SDS011;13793;55.388;37.844;2023-03-20T01:21:03;56.03;;;23.70;;
26014;SDS011;13793;55.388;37.844;2023-03-20T01:23:33;58.47;;;23.73;;
26014;SDS011;13793;55.388;37.844;2023-03-20T01:26:08;54.10;;;24.13;;
26014;SDS011;13793;55.388;37.844;2023-03-20T01:28:54;49.20;;;21.93;;
26014;SDS011;13793;55.388;37.844;2023-03-20T01:31:25;54.80;;;21.97;;
26014;SDS011;13793;55.388;37.844;2023-03-20T01:33:56;46.83;;;21.63;;
26014;SDS011;13793;55.388;37.844;2023-03-20T01:36:30;46.23;;;21.10;;
26014;SDS011;13793;55.388;37.844;2023-03-20T01:39:01;50.40;;;23.00;;
26014;SDS011;13793;55.388;37.844;2023-03-20T01:41:32;49.87;;;21.50;;
26014;SDS011;13793;55.388;37.844;2023-03-20T01:44:08;47.90;;;20.70;;
26014;SDS011;13793;55.388;37.844;2023-03-20T01:46:36;48.33;;;19.90;;
26014;SDS011;13793;55.388;37.844;2023-03-20T01:51:52;47.70;;;21.03;;
26014;SDS011;13793;55.388;37.844;2023-03-20T01:54:28;49.80;;;21.87;;
26014;SDS011;13793;55.388;37.844;2023-03-20T01:59:51;43.83;;;19.73;;
26014;SDS011;13793;55.388;37.844;2023-03-20T02:02:18;52.55;;;22.25;;
26014;SDS011;13793;55.388;37.844;2023-03-20T02:04:51;42.83;;;19.10;;
26014;SDS011;13793;55.388;37.844;2023-03-20T02:07:23;48.23;;;20.23;;
26014;SDS011;13793;55.388;37.844;2023-03-20T02:09:58;44.60;;;21.23;;
26014;SDS011;13793;55.388;37.844;2023-03-20T02:12:31;42.13;;;18.87;;
26014;SDS011;13793;55.388;37.844;2023-03-20T02:15:05;44.90;;;20.30;;
26014;SDS011;13793;55.388;37.844;2023-03-20T02:17:47;43.80;;;20.13;;
26014;SDS011;13793;55.388;37.844;2023-03-20T02:20:21;41.67;;;18.80;;
26014;SDS011;13793;55.388;37.844;2023-03-20T02:23:14;44.80;;;19.17;;
26014;SDS011;13793;55.388;37.844;2023-03-20T02:28:58;40.60;;;19.30;;
26014;SDS011;13793;55.388;37.844;2023-03-20T02:37:44;39.00;;;18.13;;
26014;SDS011;13793;55.388;37.844;2023-03-20T02:40:34;37.60;;;16.50;;
26014;SDS011;13793;55.388;37.844;2023-03-20T02:43:39;34.97;;;16.23;;
26014;SDS011;13793;55.388;37.844;2023-03-20T02:49:17;35.30;;;15.70;;
26014;SDS011;13793;55.388;37.844;2023-03-20T02:51:51;33.33;;;16.17;;
26014;SDS011;13793;55.388;37.844;2023-03-20T02:57:15;39.47;;;16.67;;
26014;SDS011;13793;55.388;37.844;2023-03-20T03:00:00;39.67;;;16.50;;
26014;SDS011;13793;55.388;37.844;2023-03-20T03:02:46;36.13;;;16.90;;
26014;SDS011;13793;55.388;37.844;2023-03-20T03:05:20;33.87;;;17.07;;
26014;SDS011;13793;55.388;37.844;2023-03-20T03:07:57;38.97;;;18.07;;
26014;SDS011;13793;55.388;37.844;2023-03-20T03:10:30;35.10;;;17.00;;
26014;SDS011;13793;55.388;37.844;2023-03-20T03:13:02;34.97;;;17.50;;
26014;SDS011;13793;55.388;37.844;2023-03-20T03:15:42;38.03;;;17.30;;
26014;SDS011;13793;55.388;37.844;2023-03-20T03:18:10;35.63;;;16.83;;
26014;SDS011;13793;55.388;37.844;2023-03-20T03:20:47;35.33;;;17.33;;
26014;SDS011;13793;55.388;37.844;2023-03-20T03:23:27;40.20;;;16.63;;
26014;SDS011;13793;55.388;37.844;2023-03-20T03:26:02;36.87;;;17.20;;
26014;SDS011;13793;55.388;37.844;2023-03-20T03:28:45;32.90;;;16.97;;
26014;SDS011;13793;55.388;37.844;2023-03-20T03:31:16;35.40;;;17.30;;
26014;SDS011;13793;55.388;37.844;2023-03-20T03:33:48;37.67;;;17.07;;
26014;SDS011;13793;55.388;37.844;2023-03-20T03:39:00;35.57;;;17.23;;
26014;SDS011;13793;55.388;37.844;2023-03-20T03:41:38;37.85;;;18.42;;
26014;SDS011;13793;55.388;37.844;2023-03-20T03:44:19;34.07;;;17.03;;
26014;SDS011;13793;55.388;37.844;2023-03-20T03:46:56;32.40;;;16.37;;
26014;SDS011;13793;55.388;37.844;2023-03-20T03:49:34;39.05;;;16.95;;
26014;SDS011;13793;55.388;37.844;2023-03-20T03:52:08;39.20;;;18.30;;
26014;SDS011;13793;55.388;37.844;2023-03-20T03:54:37;37.47;;;17.67;;
26014;SDS011;13793;55.388;37.844;2023-03-20T03:57:14;33.70;;;16.50;;
26014;SDS011;13793;55.388;37.844;2023-03-20T03:59:47;38.20;;;17.57;;
26014;SDS011;13793;55.388;37.844;2023-03-20T04:02:19;41.77;;;17.63;;
26014;SDS011;13793;55.388;37.844;2023-03-20T04:04:50;38.00;;;16.67;;
26014;SDS011;13793;55.388;37.844;2023-03-20T04:07:24;34.80;;;17.23;;
26014;SDS011;13793;55.388;37.844;2023-03-20T04:09:54;38.73;;;17.30;;
26014;SDS011;13793;55.388;37.844;2023-03-20T04:15:06;35.90;;;17.03;;
26014;SDS011;13793;55.388;37.844;2023-03-20T04:17:37;38.33;;;17.60;;
26014;SDS011;13793;55.388;37.844;2023-03-20T04:20:12;34.97;;;18.03;;
26014;SDS011;13793;55.388;37.844;2023-03-20T04:22:43;36.67;;;19.27;;
26014;SDS011;13793;55.388;37.844;2023-03-20T04:25:24;40.00;;;19.93;;
26014;SDS011;13793;55.388;37.844;2023-03-20T04:27:52;41.17;;;20.63;;
26014;SDS011;13793;55.388;37.844;2023-03-20T04:30:40;42.65;;;22.50;;
26014;SDS011;13793;55.388;37.844;2023-03-20T04:33:14;37.23;;;20.37;;
26014;SDS011;13793;55.388;37.844;2023-03-20T04:36:03;36.27;;;21.57;;
26014;SDS011;13793;55.388;37.844;2023-03-20T04:38:34;40.00;;;20.77;;
26014;SDS011;13793;55.388;37.844;2023-03-20T04:41:05;41.57;;;22.07;;
26014;SDS011;13793;55.388;37.844;2023-03-20T04:43:36;35.90;;;21.40;;
26014;SDS011;13793;55.388;37.844;2023-03-20T04:46:08;37.33;;;22.30;;
26014;SDS011;13793;55.388;37.844;2023-03-20T04:48:39;39.43;;;22.57;;
26014;SDS011;13793;55.388;37.844;2023-03-20T04:51:11;36.97;;;20.70;;
26014;SDS011;13793;55.388;37.844;2023-03-20T04:53:46;38.73;;;21.93;;
26014;SDS011;13793;55.388;37.844;2023-03-20T04:56:16;35.03;;;20.23;;
26014;SDS011;13793;55.388;37.844;2023-03-20T04:58:49;35.77;;;19.00;;
26014;SDS011;13793;55.388;37.844;2023-03-20T05:01:21;34.83;;;17.83;;
26014;SDS011;13793;55.388;37.844;2023-03-20T05:03:52;32.60;;;17.93;;
26014;SDS011;13793;55.388;37.844;2023-03-20T05:06:25;38.20;;;17.97;;
26014;SDS011;13793;55.388;37.844;2023-03-20T05:08:56;30.97;;;18.13;;
26014;SDS011;13793;55.388;37.844;2023-03-20T05:11:29;31.87;;;17.77;;
26014;SDS011;13793;55.388;37.844;2023-03-20T05:14:08;34.60;;;18.83;;
26014;SDS011;13793;55.388;37.844;2023-03-20T05:16:47;32.13;;;17.23;;
26014;SDS011;13793;55.388;37.844;2023-03-20T05:19:23;28.83;;;17.77;;
26014;SDS011;13793;55.388;37.844;2023-03-20T05:22:01;31.37;;;18.23;;
26014;SDS011;13793;55.388;37.844;2023-03-20T05:24:50;31.37;;;17.23;;
26014;SDS011;13793;55.388;37.844;2023-03-20T05:27:39;34.57;;;18.07;;
26014;SDS011;13793;55.388;37.844;2023-03-20T05:30:14;28.53;;;17.30;;
26014;SDS011;13793;55.388;37.844;2023-03-20T05:32:49;29.30;;;17.60;;
26014;SDS011;13793;55.388;37.844;2023-03-20T05:35:31;26.07;;;16.57;;
26014;SDS011;13793;55.388;37.844;2023-03-20T05:38:03;31.13;;;17.17;;
26014;SDS011;13793;55.388;37.844;2023-03-20T05:40:57;25.40;;;17.10;;
26014;SDS011;13793;55.388;37.844;2023-03-20T05:43:39;27.67;;;17.85;;
26014;SDS011;13793;55.388;37.844;2023-03-20T05:46:26;29.20;;;17.35;;
26014;SDS011;13793;55.388;37.844;2023-03-20T05:49:16;24.03;;;15.03;;
26014;SDS011;13793;55.388;37.844;2023-03-20T05:52:08;25.80;;;15.73;;
26014;SDS011;13793;55.388;37.844;2023-03-20T05:54:43;27.50;;;16.50;;
26014;SDS011;13793;55.388;37.844;2023-03-20T05:57:21;25.70;;;16.37;;
26014;SDS011;13793;55.388;37.844;2023-03-20T05:59:59;25.60;;;15.03;;
26014;SDS011;13793;55.388;37.844;2023-03-20T06:02:50;25.83;;;14.83;;
26014;SDS011;13793;55.388;37.844;2023-03-20T06:05:31;25.17;;;15.03;;
26014;SDS011;13793;55.388;37.844;2023-03-20T06:08:03;21.93;;;13.90;;
26014;SDS011;13793;55.388;37.844;2023-03-20T06:10:34;20.10;;;14.17;;
26014;SDS011;13793;55.388;37.844;2023-03-20T06:13:04;24.27;;;13.80;;
26014;SDS011;13793;55.388;37.844;2023-03-20T06:15:34;24.07;;;13.30;;
26014;SDS011;13793;55.388;37.844;2023-03-20T06:18:07;18.97;;;12.90;;
26014;SDS011;13793;55.388;37.844;2023-03-20T06:20:37;22.60;;;12.70;;
26014;SDS011;13793;55.388;37.844;2023-03-20T06:23:09;19.50;;;12.33;;
26014;SDS011;13793;55.388;37.844;2023-03-20T06:25:41;20.00;;;12.07;;
26014;SDS011;13793;55.388;37.844;2023-03-20T06:28:12;15.73;;;11.50;;
26014;SDS011;13793;55.388;37.844;2023-03-20T06:30:44;18.90;;;11.10;;
26014;SDS011;13793;55.388;37.844;2023-03-20T06:33:16;16.73;;;11.47;;
26014;SDS011;13793;55.388;37.844;2023-03-20T06:35:52;17.77;;;10.77;;
26014;SDS011;13793;55.388;37.844;2023-03-20T06:38:23;18.33;;;11.63;;
26014;SDS011;13793;55.388;37.844;2023-03-20T06:40:54;17.23;;;11.07;;
26014;SDS011;13793;55.388;37.844;2023-03-20T06:43:24;15.80;;;10.97;;
26014;SDS011;13793;55.388;37.844;2023-03-20T06:45:55;15.33;;;10.63;;
26014;SDS011;13793;55.388;37.844;2023-03-20T06:48:30;15.87;;;11.10;;
26014;SDS011;13793;55.388;37.844;2023-03-20T06:51:01;19.53;;;11.07;;
26014;SDS011;13793;55.388;37.844;2023-03-20T06:53:33;15.23;;;10.43;;
26014;SDS011;13793;55.388;37.844;2023-03-20T06:56:06;15.73;;;10.83;;
26014;SDS011;13793;55.388;37.844;2023-03-20T06:58:39;15.70;;;9.70;;
26014;SDS011;13793;55.388;37.844;2023-03-20T07:01:10;14.77;;;10.57;;
26014;SDS011;13793;55.388;37.844;2023-03-20T07:03:43;15.27;;;11.00;;
26014;SDS011;13793;55.388;37.844;2023-03-20T07:06:14;11.83;;;8.63;;
26014;SDS011;13793;55.388;37.844;2023-03-20T07:08:46;10.87;;;7.73;;
26014;SDS011;13793;55.388;37.844;2023-03-20T07:11:17;11.93;;;8.73;;
26014;SDS011;13793;55.388;37.844;2023-03-20T07:13:47;10.75;;;7.62;;
26014;SDS011;13793;55.388;37.844;2023-03-20T07:16:20;10.48;;;7.20;;
26014;SDS011;13793;55.388;37.844;2023-03-20T07:18:51;11.57;;;6.83;;
26014;SDS011;13793;55.388;37.844;2023-03-20T07:21:22;11.05;;;6.40;;
26014;SDS011;13793;55.388;37.844;2023-03-20T07:23:52;9.05;;;5.85;;
26014;SDS011;13793;55.388;37.844;2023-03-20T07:26:23;12.73;;;6.55;;
26014;SDS011;13793;55.388;37.844;2023-03-20T07:28:54;10.55;;;7.17;;
26014;SDS011;13793;55.388;37.844;2023-03-20T07:31:26;8.35;;;6.10;;
26014;SDS011;13793;55.388;37.844;2023-03-20T07:34:00;6.33;;;5.30;;
26014;SDS011;13793;55.388;37.844;2023-03-20T07:36:32;9.45;;;6.37;;
26014;SDS011;13793;55.388;37.844;2023-03-20T07:39:03;9.43;;;7.47;;
26014;SDS011;13793;55.388;37.844;2023-03-20T07:41:35;10.72;;;7.35;;
26014;SDS011;13793;55.388;37.844;2023-03-20T07:44:08;9.93;;;7.40;;
26014;SDS011;13793;55.388;37.844;2023-03-20T07:46:40;12.65;;;7.80;;
26014;SDS011;13793;55.388;37.844;2023-03-20T07:49:12;11.15;;;7.67;;
26014;SDS011;13793;55.388;37.844;2023-03-20T07:51:46;12.68;;;6.40;;
26014;SDS011;13793;55.388;37.844;2023-03-20T07:54:17;12.53;;;6.85;;
26014;SDS011;13793;55.388;37.844;2023-03-20T07:56:48;10.35;;;6.80;;
26014;SDS011;13793;55.388;37.844;2023-03-20T07:59:18;11.48;;;7.22;;
26014;SDS011;13793;55.388;37.844;2023-03-20T08:01:49;12.85;;;7.22;;
26014;SDS011;13793;55.388;37.844;2023-03-20T08:04:20;13.48;;;7.08;;
26014;SDS011;13793;55.388;37.844;2023-03-20T08:06:51;12.90;;;8.10;;
26014;SDS011;13793;55.388;37.844;2023-03-20T08:09:21;12.23;;;7.87;;
26014;SDS011;13793;55.388;37.844;2023-03-20T08:11:52;11.95;;;8.10;;
26014;SDS011;13793;55.388;37.844;2023-03-20T08:14:22;14.70;;;7.58;;
26014;SDS011;13793;55.388;37.844;2023-03-20T08:16:53;10.28;;;7.55;;
26014;SDS011;13793;55.388;37.844;2023-03-20T08:19:24;12.33;;;8.10;;
26014;SDS011;13793;55.388;37.844;2023-03-20T08:21:54;11.03;;;7.33;;
26014;SDS011;13793;55.388;37.844;2023-03-20T08:24:25;12.37;;;7.40;;
26014;SDS011;13793;55.388;37.844;2023-03-20T08:26:56;12.18;;;7.12;;
26014;SDS011;13793;55.388;37.844;2023-03-20T08:29:26;8.68;;;7.03;;
26014;SDS011;13793;55.388;37.844;2023-03-20T08:31:57;7.75;;;5.90;;
26014;SDS011;13793;55.388;37.844;2023-03-20T08:34:28;10.30;;;6.62;;
26014;SDS011;13793;55.388;37.844;2023-03-20T08:37:04;8.28;;;4.92;;
26014;SDS011;13793;55.388;37.844;2023-03-20T08:39:35;5.92;;;4.67;;
26014;SDS011;13793;55.388;37.844;2023-03-20T08:42:06;5.53;;;4.55;;
26014;SDS011;13793;55.388;37.844;2023-03-20T08:44:37;6.87;;;4.75;;
26014;SDS011;13793;55.388;37.844;2023-03-20T08:47:10;8.90;;;5.37;;
26014;SDS011;13793;55.388;37.844;2023-03-20T08:49:42;8.30;;;5.55;;
26014;SDS011;13793;55.388;37.844;2023-03-20T08:52:13;8.05;;;4.75;;
26014;SDS011;13793;55.388;37.844;2023-03-20T08:54:44;7.83;;;5.08;;
26014;SDS011;13793;55.388;37.844;2023-03-20T08:57:14;7.33;;;5.60;;
26014;SDS011;13793;55.388;37.844;2023-03-20T08:59:45;7.95;;;6.28;;
26014;SDS011;13793;55.388;37.844;2023-03-20T09:02:16;10.98;;;5.85;;
26014;SDS011;13793;55.388;37.844;2023-03-20T09:04:46;8.73;;;5.70;;
26014;SDS011;13793;55.388;37.844;2023-03-20T09:07:17;7.42;;;5.08;;
26014;SDS011;13793;55.388;37.844;2023-03-20T09:09:49;6.30;;;5.25;;
26014;SDS011;13793;55.388;37.844;2023-03-20T09:12:20;10.68;;;6.12;;
26014;SDS011;13793;55.388;37.844;2023-03-20T09:14:50;10.10;;;6.87;;
26014;SDS011;13793;55.388;37.844;2023-03-20T09:17:21;11.25;;;6.95;;
26014;SDS011;13793;55.388;37.844;2023-03-20T09:19:52;8.70;;;6.58;;
26014;SDS011;13793;55.388;37.844;2023-03-20T09:22:23;9.08;;;6.60;;
26014;SDS011;13793;55.388;37.844;2023-03-20T09:24:54;11.48;;;8.43;;
26014;SDS011;13793;55.388;37.844;2023-03-20T09:27:25;10.38;;;6.40;;
26014;SDS011;13793;55.388;37.844;2023-03-20T09:29:56;10.55;;;7.70;;
26014;SDS011;13793;55.388;37.844;2023-03-20T09:32:26;11.57;;;6.90;;
26014;SDS011;13793;55.388;37.844;2023-03-20T09:34:57;8.58;;;6.75;;
26014;SDS011;13793;55.388;37.844;2023-03-20T09:37:29;9.58;;;6.33;;
26014;SDS011;13793;55.388;37.844;2023-03-20T09:40:00;9.00;;;6.17;;
26014;SDS011;13793;55.388;37.844;2023-03-20T09:42:38;8.93;;;6.33;;
26014;SDS011;13793;55.388;37.844;2023-03-20T09:50:35;11.60;;;8.23;;
26014;SDS011;13793;55.388;37.844;2023-03-20T09:53:17;10.80;;;7.03;;
26014;SDS011;13793;55.388;37.844;2023-03-20T09:55:52;11.57;;;6.50;;
26014;SDS011;13793;55.388;37.844;2023-03-20T09:58:25;10.13;;;6.97;;
26014;SDS011;13793;55.388;37.844;2023-03-20T10:00:57;7.80;;;5.22;;
26014;SDS011;13793;55.388;37.844;2023-03-20T10:03:38;8.08;;;5.70;;
26014;SDS011;13793;55.388;37.844;2023-03-20T10:06:13;8.90;;;5.75;;
26014;SDS011;13793;55.388;37.844;2023-03-20T10:08:45;15.00;;;8.58;;
26014;SDS011;13793;55.388;37.844;2023-03-20T10:14:05;7.33;;;5.70;;
26014;SDS011;13793;55.388;37.844;2023-03-20T10:16:55;7.90;;;5.58;;
26014;SDS011;13793;55.388;37.844;2023-03-20T10:19:43;9.43;;;6.30;;
26014;SDS011;13793;55.388;37.844;2023-03-20T10:22:37;9.30;;;6.10;;
26014;SDS011;13793;55.388;37.844;2023-03-20T10:27:53;9.93;;;6.08;;
26014;SDS011;13793;55.388;37.844;2023-03-20T10:30:51;9.78;;;6.50;;
26014;SDS011;13793;55.388;37.844;2023-03-20T10:42:09;7.35;;;5.22;;
26014;SDS011;13793;55.388;37.844;2023-03-20T10:44:50;7.05;;;5.17;;
26014;SDS011;13793;55.388;37.844;2023-03-20T10:47:22;9.28;;;5.72;;
26014;SDS011;13793;55.388;37.844;2023-03-20T10:49:59;6.33;;;4.87;;
26014;SDS011;13793;55.388;37.844;2023-03-20T10:52:31;7.90;;;5.37;;
26014;SDS011;13793;55.388;37.844;2023-03-20T10:55:10;6.90;;;4.60;;
26014;SDS011;13793;55.388;37.844;2023-03-20T10:57:44;10.28;;;5.60;;
26014;SDS011;13793;55.388;37.844;2023-03-20T11:00:17;6.72;;;4.90;;
26014;SDS011;13793;55.388;37.844;2023-03-20T11:02:53;7.35;;;5.00;;
26014;SDS011;13793;55.388;37.844;2023-03-20T11:05:33;7.90;;;4.72;;
26014;SDS011;13793;55.388;37.844;2023-03-20T11:08:06;7.53;;;5.40;;
26014;SDS011;13793;55.388;37.844;2023-03-20T11:10:40;11.45;;;6.20;;
26014;SDS011;13793;55.388;37.844;2023-03-20T11:15:56;4.25;;;2.98;;
26014;SDS011;13793;55.388;37.844;2023-03-20T11:18:30;5.12;;;2.62;;
26014;SDS011;13793;55.388;37.844;2023-03-20T11:21:00;4.75;;;2.70;;
26014;SDS011;13793;55.388;37.844;2023-03-20T11:23:36;4.83;;;3.00;;
26014;SDS011;13793;55.388;37.844;2023-03-20T11:26:10;4.45;;;3.20;;
26014;SDS011;13793;55.388;37.844;2023-03-20T11:28:54;6.95;;;3.00;;
26014;SDS011;13793;55.388;37.844;2023-03-20T11:31:35;4.50;;;2.85;;
26014;SDS011;13793;55.388;37.844;2023-03-20T11:36:56;4.12;;;2.77;;
26014;SDS011;13793;55.388;37.844;2023-03-20T11:39:28;4.10;;;2.90;;
26014;SDS011;13793;55.388;37.844;2023-03-20T11:42:03;5.22;;;2.65;;
26014;SDS011;13793;55.388;37.844;2023-03-20T11:44:37;3.58;;;2.58;;
26014;SDS011;13793;55.388;37.844;2023-03-20T11:49:45;5.33;;;2.62;;
26014;SDS011;13793;55.388;37.844;2023-03-20T11:52:21;4.08;;;2.92;;
26014;SDS011;13793;55.388;37.844;2023-03-20T11:54:56;5.85;;;2.50;;
26014;SDS011;13793;55.388;37.844;2023-03-20T11:57:34;4.42;;;2.98;;
26014;SDS011;13793;55.388;37.844;2023-03-20T12:03:00;5.67;;;2.58;;
26014;SDS011;13793;55.388;37.844;2023-03-20T12:05:34;3.30;;;2.77;;
26014;SDS011;13793;55.388;37.844;2023-03-20T12:08:22;4.37;;;2.45;;
26014;SDS011;13793;55.388;37.844;2023-03-20T12:10:59;4.30;;;2.20;;
26014;SDS011;13793;55.388;37.844;2023-03-20T12:13:46;4.22;;;2.20;;
26014;SDS011;13793;55.388;37.844;2023-03-20T12:16:19;3.58;;;2.08;;
26014;SDS011;13793;55.388;37.844;2023-03-20T12:18:59;3.47;;;1.90;;
26014;SDS011;13793;55.388;37.844;2023-03-20T12:21:39;3.17;;;2.00;;
26014;SDS011;13793;55.388;37.844;2023-03-20T12:27:20;5.30;;;3.10;;
26014;SDS011;13793;55.388;37.844;2023-03-20T12:30:00;5.95;;;3.02;;
26014;SDS011;13793;55.388;37.844;2023-03-20T12:32:39;4.95;;;3.12;;
26014;SDS011;13793;55.388;37.844;2023-03-20T12:35:28;4.90;;;3.60;;
26014;SDS011;13793;55.388;37.844;2023-03-20T12:37:57;6.08;;;3.90;;
26014;SDS011;13793;55.388;37.844;2023-03-20T12:40:43;5.72;;;3.75;;
26014;SDS011;13793;55.388;37.844;2023-03-20T12:43:15;6.30;;;4.20;;
26014;SDS011;13793;55.388;37.844;2023-03-20T12:46:06;7.25;;;4.22;;
26014;SDS011;13793;55.388;37.844;2023-03-20T12:48:48;7.37;;;4.70;;
26014;SDS011;13793;55.388;37.844;2023-03-20T12:51:27;5.37;;;3.40;;
26014;SDS011;13793;55.388;37.844;2023-03-20T12:57:09;4.90;;;3.60;;
26014;SDS011;13793;55.388;37.844;2023-03-20T13:00:02;8.27;;;3.80;;
26014;SDS011;13793;55.388;37.844;2023-03-20T13:05:50;6.20;;;4.43;;
26014;SDS011;13793;55.388;37.844;2023-03-20T13:11:10;5.83;;;4.53;;
26014;SDS011;13793;55.388;37.844;2023-03-20T13:19:27;7.47;;;4.60;;
26014;SDS011;13793;55.388;37.844;2023-03-20T13:22:01;6.57;;;4.70;;
26014;SDS011;13793;55.388;37.844;2023-03-20T13:24:37;8.27;;;4.63;;
26014;SDS011;13793;55.388;37.844;2023-03-20T13:32:42;10.77;;;4.10;;
26014;SDS011;13793;55.388;37.844;2023-03-20T13:35:23;9.83;;;4.47;;
26014;SDS011;13793;55.388;37.844;2023-03-20T13:38:00;9.97;;;4.10;;
26014;SDS011;13793;55.388;37.844;2023-03-20T13:40:42;8.20;;;4.30;;
26014;SDS011;13793;55.388;37.844;2023-03-20T13:43:22;7.73;;;4.67;;
26014;SDS011;13793;55.388;37.844;2023-03-20T13:45:55;10.57;;;5.13;;
26014;SDS011;13793;55.388;37.844;2023-03-20T13:59:38;9.53;;;5.13;;
26014;SDS011;13793;55.388;37.844;2023-03-20T14:02:26;9.10;;;4.97;;
26014;SDS011;13793;55.388;37.844;2023-03-20T14:05:20;12.80;;;5.23;;
26014;SDS011;13793;55.388;37.844;2023-03-20T14:07:56;12.73;;;5.17;;
26014;SDS011;13793;55.388;37.844;2023-03-20T14:13:09;9.00;;;5.10;;
26014;SDS011;13793;55.388;37.844;2023-03-20T14:15:36;9.37;;;5.30;;
26014;SDS011;13793;55.388;37.844;2023-03-20T14:18:12;10.57;;;5.70;;
26014;SDS011;13793;55.388;37.844;2023-03-20T14:20:49;10.60;;;5.57;;
26014;SDS011;13793;55.388;37.844;2023-03-20T14:23:40;13.07;;;6.47;;
26014;SDS011;13793;55.388;37.844;2023-03-20T14:26:18;14.13;;;9.17;;
26014;SDS011;13793;55.388;37.844;2023-03-20T14:28:52;28.83;;;17.47;;
26014;SDS011;13793;55.388;37.844;2023-03-20T14:31:31;15.23;;;9.00;;
26014;SDS011;13793;55.388;37.844;2023-03-20T14:34:11;17.60;;;8.37;;
26014;SDS011;13793;55.388;37.844;2023-03-20T14:39:33;14.80;;;7.53;;
26014;SDS011;13793;55.388;37.844;2023-03-20T14:42:58;19.93;;;8.50;;
26014;SDS011;13793;55.388;37.844;2023-03-20T14:45:07;12.57;;;7.60;;
26014;SDS011;13793;55.388;37.844;2023-03-20T14:47:47;15.87;;;7.17;;
26014;SDS011;13793;55.388;37.844;2023-03-20T14:52:54;12.73;;;7.37;;
26014;SDS011;13793;55.388;37.844;2023-03-20T14:55:30;16.23;;;7.00;;
26014;SDS011;13793;55.388;37.844;2023-03-20T14:58:03;12.53;;;7.77;;
26014;SDS011;13793;55.388;37.844;2023-03-20T15:00:42;15.37;;;6.70;;
26014;SDS011;13793;55.388;37.844;2023-03-20T15:03:16;10.37;;;5.90;;
26014;SDS011;13793;55.388;37.844;2023-03-20T15:05:49;11.93;;;7.00;;
26014;SDS011;13793;55.388;37.844;2023-03-20T15:08:22;14.83;;;7.47;;
26014;SDS011;13793;55.388;37.844;2023-03-20T15:10:55;14.53;;;6.90;;
26014;SDS011;13793;55.388;37.844;2023-03-20T15:13:27;15.17;;;7.10;;
26014;SDS011;13793;55.388;37.844;2023-03-20T15:15:59;13.00;;;7.27;;
26014;SDS011;13793;55.388;37.844;2023-03-20T15:18:39;13.93;;;6.93;;
26014;SDS011;13793;55.388;37.844;2023-03-20T15:21:12;14.80;;;7.00;;
26014;SDS011;13793;55.388;37.844;2023-03-20T15:23:44;11.73;;;6.70;;
26014;SDS011;13793;55.388;37.844;2023-03-20T15:26:16;13.93;;;6.97;;
26014;SDS011;13793;55.388;37.844;2023-03-20T15:28:58;18.30;;;7.92;;
26014;SDS011;13793;55.388;37.844;2023-03-20T15:31:29;15.63;;;7.07;;
26014;SDS011;13793;55.388;37.844;2023-03-20T15:34:04;17.00;;;7.47;;
26014;SDS011;13793;55.388;37.844;2023-03-20T15:36:57;18.33;;;8.40;;
26014;SDS011;13793;55.388;37.844;2023-03-20T15:39:29;15.77;;;7.67;;
26014;SDS011;13793;55.388;37.844;2023-03-20T15:42:03;15.77;;;7.67;;
26014;SDS011;13793;55.388;37.844;2023-03-20T15:44:36;22.87;;;9.23;;
26014;SDS011;13793;55.388;37.844;2023-03-20T15:47:14;19.10;;;8.73;;
26014;SDS011;13793;55.388;37.844;2023-03-20T15:50:00;18.30;;;8.77;;
26014;SDS011;13793;55.388;37.844;2023-03-20T15:52:26;19.33;;;9.10;;
26014;SDS011;13793;55.388;37.844;2023-03-20T15:55:10;17.20;;;8.50;;
26014;SDS011;13793;55.388;37.844;2023-03-20T15:57:39;15.50;;;8.30;;
26014;SDS011;13793;55.388;37.844;2023-03-20T16:00:18;20.43;;;10.67;;
26014;SDS011;13793;55.388;37.844;2023-03-20T16:02:50;22.37;;;11.67;;
26014;SDS011;13793;55.388;37.844;2023-03-20T16:05:22;19.80;;;10.30;;
26014;SDS011;13793;55.388;37.844;2023-03-20T16:07:54;23.57;;;10.47;;
26014;SDS011;13793;55.388;37.844;2023-03-20T16:10:29;23.07;;;10.50;;
26014;SDS011;13793;55.388;37.844;2023-03-20T16:13:05;16.37;;;8.65;;
26014;SDS011;13793;55.388;37.844;2023-03-20T16:15:37;15.23;;;8.27;;
26014;SDS011;13793;55.388;37.844;2023-03-20T16:18:09;17.40;;;8.73;;
26014;SDS011;13793;55.388;37.844;2023-03-20T16:20:43;15.67;;;8.37;;
26014;SDS011;13793;55.388;37.844;2023-03-20T16:23:19;14.70;;;7.90;;
26014;SDS011;13793;55.388;37.844;2023-03-20T16:25:49;18.20;;;10.07;;
26014;SDS011;13793;55.388;37.844;2023-03-20T16:28:20;23.17;;;10.80;;
26014;SDS011;13793;55.388;37.844;2023-03-20T16:30:51;36.80;;;18.33;;
26014;SDS011;13793;55.388;37.844;2023-03-20T16:33:22;36.70;;;16.43;;
26014;SDS011;13793;55.388;37.844;2023-03-20T16:35:53;34.57;;;16.63;;
26014;SDS011;13793;55.388;37.844;2023-03-20T16:38:25;20.23;;;11.00;;
26014;SDS011;13793;55.388;37.844;2023-03-20T16:41:14;24.80;;;13.73;;